sensor_id;sensor_type;location;lat;lon;timestamp;pressure;altitude;pressure_sealevel;temperature;humidity
10464;BME280;5279;42.048;24.638;2022-11-13T00:00:00;99038.56;;;10.33;100.00
10464;BME280;5279;42.048;24.638;2022-11-13T00:02:27;99044.06;;;10.43;100.00
10464;BME280;5279;42.048;24.638;2022-11-13T00:04:54;99038.94;;;10.52;100.00
10464;BME280;5279;42.048;24.638;2022-11-13T00:07:21;99029.41;;;10.50;100.00
10464;BME280;5279;42.048;24.638;2022-11-13T00:09:48;99034.81;;;10.61;100.00
10464;BME280;5279;42.048;24.638;2022-11-13T00:12:15;99030.03;;;10.66;100.00
10464;BME280;5279;42.048;24.638;2022-11-13T00:14:44;99029.97;;;10.78;100.00
10464;BME280;5279;42.048;24.638;2022-11-13T00:17:11;99041.44;;;10.79;100.00
10464;BME280;5279;42.048;24.638;2022-11-13T00:19:38;99020.22;;;10.79;100.00
10464;BME280;5279;42.048;24.638;2022-11-13T00:22:05;99012.59;;;10.74;100.00
10464;BME280;5279;42.048;24.638;2022-11-13T00:24:32;99035.03;;;10.94;100.00
10464;BME280;5279;42.048;24.638;2022-11-13T00:26:58;99021.38;;;10.87;100.00
10464;BME280;5279;42.048;24.638;2022-11-13T00:29:25;99032.25;;;10.95;100.00
10464;BME280;5279;42.048;24.638;2022-11-13T00:31:53;99037.09;;;11.02;100.00
10464;BME280;5279;42.048;24.638;2022-11-13T00:34:20;99038.81;;;11.03;100.00
10464;BME280;5279;42.048;24.638;2022-11-13T00:36:47;99040.47;;;11.04;100.00
10464;BME280;5279;42.048;24.638;2022-11-13T00:39:14;99032.06;;;11.10;100.00
10464;BME280;5279;42.048;24.638;2022-11-13T00:41:41;99026.03;;;11.08;100.00
10464;BME280;5279;42.048;24.638;2022-11-13T00:44:09;99030.84;;;11.03;100.00
10464;BME280;5279;42.048;24.638;2022-11-13T00:46:36;99032.06;;;11.10;100.00
10464;BME280;5279;42.048;24.638;2022-11-13T00:49:04;99044.19;;;11.01;100.00
10464;BME280;5279;42.048;24.638;2022-11-13T00:51:31;99030.94;;;11.01;100.00
10464;BME280;5279;42.048;24.638;2022-11-13T00:53:58;99033.72;;;11.00;100.00
10464;BME280;5279;42.048;24.638;2022-11-13T00:56:25;99032.66;;;11.02;100.00
10464;BME280;5279;42.048;24.638;2022-11-13T00:58:52;99036.88;;;11.05;100.00
10464;BME280;5279;42.048;24.638;2022-11-13T01:01:19;99035.41;;;11.01;100.00
10464;BME280;5279;42.048;24.638;2022-11-13T01:03:46;99035.84;;;10.94;100.00
10464;BME280;5279;42.048;24.638;2022-11-13T01:06:17;99035.25;;;10.91;100.00
10464;BME280;5279;42.048;24.638;2022-11-13T01:08:45;99031.22;;;10.85;100.00
10464;BME280;5279;42.048;24.638;2022-11-13T01:11:13;99046.22;;;10.97;100.00
10464;BME280;5279;42.048;24.638;2022-11-13T01:13:42;99034.44;;;11.02;100.00
10464;BME280;5279;42.048;24.638;2022-11-13T01:16:11;99041.78;;;10.98;100.00
10464;BME280;5279;42.048;24.638;2022-11-13T01:18:39;99037.53;;;10.95;100.00
10464;BME280;5279;42.048;24.638;2022-11-13T01:21:09;99033.31;;;10.93;100.00
10464;BME280;5279;42.048;24.638;2022-11-13T01:23:38;99026.44;;;10.90;100.00
10464;BME280;5279;42.048;24.638;2022-11-13T01:26:08;99029.59;;;10.95;100.00
10464;BME280;5279;42.048;24.638;2022-11-13T01:28:36;99027.78;;;10.96;100.00
10464;BME280;5279;42.048;24.638;2022-11-13T01:31:04;99033.53;;;10.90;100.00
10464;BME280;5279;42.048;24.638;2022-11-13T01:33:31;99020.38;;;10.88;100.00
10464;BME280;5279;42.048;24.638;2022-11-13T01:35:59;99029.28;;;11.00;100.00
10464;BME280;5279;42.048;24.638;2022-11-13T01:38:27;99026.94;;;10.95;100.00
10464;BME280;5279;42.048;24.638;2022-11-13T01:40:55;99016.94;;;10.75;100.00
10464;BME280;5279;42.048;24.638;2022-11-13T01:43:24;99024.97;;;10.86;100.00
10464;BME280;5279;42.048;24.638;2022-11-13T01:46:16;99022.81;;;10.91;100.00
10464;BME280;5279;42.048;24.638;2022-11-13T01:48:46;99005.38;;;10.76;100.00
10464;BME280;5279;42.048;24.638;2022-11-13T01:51:18;99002.22;;;10.71;100.00
10464;BME280;5279;42.048;24.638;2022-11-13T01:53:48;99008.16;;;10.75;100.00
10464;BME280;5279;42.048;24.638;2022-11-13T01:56:17;99007.72;;;10.68;100.00
10464;BME280;5279;42.048;24.638;2022-11-13T01:58:48;99005.66;;;10.61;100.00
10464;BME280;5279;42.048;24.638;2022-11-13T02:01:17;99006.88;;;10.68;100.00
10464;BME280;5279;42.048;24.638;2022-11-13T02:03:44;99013.22;;;10.78;100.00
10464;BME280;5279;42.048;24.638;2022-11-13T02:06:11;99007.47;;;10.84;100.00
10464;BME280;5279;42.048;24.638;2022-11-13T02:08:39;99011.47;;;10.89;100.00
10464;BME280;5279;42.048;24.638;2022-11-13T02:11:06;99010.41;;;10.92;100.00
10464;BME280;5279;42.048;24.638;2022-11-13T02:13:34;99010.81;;;10.98;100.00
10464;BME280;5279;42.048;24.638;2022-11-13T02:16:02;99012.50;;;11.00;100.00
10464;BME280;5279;42.048;24.638;2022-11-13T02:18:31;99003.47;;;10.78;100.00
10464;BME280;5279;42.048;24.638;2022-11-13T02:21:04;99013.69;;;10.95;100.00
10464;BME280;5279;42.048;24.638;2022-11-13T02:23:42;99000.66;;;10.92;100.00
10464;BME280;5279;42.048;24.638;2022-11-13T02:26:12;98987.50;;;10.91;100.00
10464;BME280;5279;42.048;24.638;2022-11-13T02:28:39;99000.19;;;10.98;100.00
10464;BME280;5279;42.048;24.638;2022-11-13T02:31:07;99003.44;;;10.91;100.00
10464;BME280;5279;42.048;24.638;2022-11-13T02:33:36;99007.88;;;10.90;100.00
10464;BME280;5279;42.048;24.638;2022-11-13T02:36:04;99005.13;;;10.79;100.00
10464;BME280;5279;42.048;24.638;2022-11-13T02:38:35;98993.31;;;10.72;100.00
10464;BME280;5279;42.048;24.638;2022-11-13T02:41:03;99002.63;;;10.78;100.00
10464;BME280;5279;42.048;24.638;2022-11-13T02:43:31;98996.63;;;10.87;100.00
10464;BME280;5279;42.048;24.638;2022-11-13T02:45:58;98982.25;;;10.78;100.00
10464;BME280;5279;42.048;24.638;2022-11-13T02:48:25;98993.63;;;10.91;100.00
10464;BME280;5279;42.048;24.638;2022-11-13T02:50:52;98998.94;;;10.91;100.00
10464;BME280;5279;42.048;24.638;2022-11-13T02:53:19;99004.47;;;10.88;100.00
10464;BME280;5279;42.048;24.638;2022-11-13T02:55:46;99006.91;;;10.91;100.00
10464;BME280;5279;42.048;24.638;2022-11-13T02:58:13;99000.00;;;10.89;100.00
10464;BME280;5279;42.048;24.638;2022-11-13T03:00:41;98990.22;;;10.78;100.00
10464;BME280;5279;42.048;24.638;2022-11-13T03:03:08;99001.94;;;10.87;100.00
10464;BME280;5279;42.048;24.638;2022-11-13T03:05:35;99003.69;;;10.75;100.00
10464;BME280;5279;42.048;24.638;2022-11-13T03:08:02;98994.63;;;10.54;100.00
10464;BME280;5279;42.048;24.638;2022-11-13T03:10:29;98987.19;;;10.59;100.00
10464;BME280;5279;42.048;24.638;2022-11-13T03:12:57;98993.31;;;10.72;100.00
10464;BME280;5279;42.048;24.638;2022-11-13T03:15:24;98988.72;;;10.74;100.00
10464;BME280;5279;42.048;24.638;2022-11-13T03:17:52;98989.13;;;10.81;100.00
10464;BME280;5279;42.048;24.638;2022-11-13T03:20:19;98990.25;;;10.89;100.00
10464;BME280;5279;42.048;24.638;2022-11-13T03:22:46;98996.81;;;10.96;100.00
10464;BME280;5279;42.048;24.638;2022-11-13T03:25:13;98986.22;;;10.96;100.00
10464;BME280;5279;42.048;24.638;2022-11-13T03:27:40;98992.13;;;11.00;100.00
10464;BME280;5279;42.048;24.638;2022-11-13T03:30:07;98987.88;;;10.97;100.00
10464;BME280;5279;42.048;24.638;2022-11-13T03:32:34;98993.63;;;10.91;100.00
10464;BME280;5279;42.048;24.638;2022-11-13T03:35:04;98991.28;;;11.00;100.00
10464;BME280;5279;42.048;24.638;2022-11-13T03:37:31;98989.94;;;10.94;100.00
10464;BME280;5279;42.048;24.638;2022-11-13T03:39:58;98990.53;;;10.97;100.00
10464;BME280;5279;42.048;24.638;2022-11-13T03:42:25;98984.91;;;11.02;100.00
10464;BME280;5279;42.048;24.638;2022-11-13T03:44:51;98983.44;;;10.98;100.00
10464;BME280;5279;42.048;24.638;2022-11-13T03:47:18;98983.19;;;11.01;100.00
10464;BME280;5279;42.048;24.638;2022-11-13T03:49:45;98977.72;;;10.91;100.00
10464;BME280;5279;42.048;24.638;2022-11-13T03:52:14;98990.72;;;10.83;100.00
10464;BME280;5279;42.048;24.638;2022-11-13T03:54:41;98995.34;;;10.92;100.00
10464;BME280;5279;42.048;24.638;2022-11-13T03:57:08;98996.28;;;10.91;100.00
10464;BME280;5279;42.048;24.638;2022-11-13T03:59:34;98985.91;;;10.88;100.00
10464;BME280;5279;42.048;24.638;2022-11-13T04:02:01;98986.22;;;10.96;100.00
10464;BME280;5279;42.048;24.638;2022-11-13T04:04:28;98990.25;;;10.89;100.00
10464;BME280;5279;42.048;24.638;2022-11-13T04:06:55;98987.66;;;11.01;100.00
10464;BME280;5279;42.048;24.638;2022-11-13T04:09:24;98984.06;;;11.02;100.00
10464;BME280;5279;42.048;24.638;2022-11-13T04:11:51;98990.59;;;11.09;100.00
10464;BME280;5279;42.048;24.638;2022-11-13T04:14:17;98985.63;;;11.04;100.00
10464;BME280;5279;42.048;24.638;2022-11-13T04:16:44;98982.75;;;11.07;100.00
10464;BME280;5279;42.048;24.638;2022-11-13T04:19:11;98998.66;;;11.07;100.00
10464;BME280;5279;42.048;24.638;2022-11-13T04:21:38;98998.72;;;10.94;100.00
10464;BME280;5279;42.048;24.638;2022-11-13T04:24:05;98997.00;;;11.06;100.00
10464;BME280;5279;42.048;24.638;2022-11-13T04:26:34;98995.16;;;11.07;100.00
10464;BME280;5279;42.048;24.638;2022-11-13T04:29:00;98996.13;;;11.06;100.00
10464;BME280;5279;42.048;24.638;2022-11-13T04:31:27;98981.63;;;10.98;100.00
10464;BME280;5279;42.048;24.638;2022-11-13T04:33:54;98985.59;;;10.93;100.00
10464;BME280;5279;42.048;24.638;2022-11-13T04:36:21;98987.97;;;10.85;100.00
10464;BME280;5279;42.048;24.638;2022-11-13T04:38:48;98991.22;;;10.88;100.00
10464;BME280;5279;42.048;24.638;2022-11-13T04:41:15;98992.88;;;10.78;100.00
10464;BME280;5279;42.048;24.638;2022-11-13T04:44:01;98999.34;;;10.98;100.00
10464;BME280;5279;42.048;24.638;2022-11-13T04:46:28;99004.66;;;10.98;100.00
10464;BME280;5279;42.048;24.638;2022-11-13T04:48:55;99000.41;;;10.95;100.00
10464;BME280;5279;42.048;24.638;2022-11-13T04:51:21;99002.66;;;10.89;100.00
10464;BME280;5279;42.048;24.638;2022-11-13T04:53:48;99003.75;;;10.86;100.00
10464;BME280;5279;42.048;24.638;2022-11-13T04:56:15;99001.09;;;10.86;100.00
10464;BME280;5279;42.048;24.638;2022-11-13T04:58:42;98999.38;;;10.85;100.00
10464;BME280;5279;42.048;24.638;2022-11-13T05:01:10;99004.47;;;10.88;100.00
10464;BME280;5279;42.048;24.638;2022-11-13T05:03:37;99005.31;;;10.89;100.00
10464;BME280;5279;42.048;24.638;2022-11-13T05:06:06;99011.97;;;10.94;100.00
10464;BME280;5279;42.048;24.638;2022-11-13T05:08:33;99010.84;;;10.86;100.00
10464;BME280;5279;42.048;24.638;2022-11-13T05:11:01;99010.22;;;10.82;100.00
10464;BME280;5279;42.048;24.638;2022-11-13T05:13:29;99011.28;;;10.80;100.00
10464;BME280;5279;42.048;24.638;2022-11-13T05:16:00;99005.81;;;10.70;100.00
10464;BME280;5279;42.048;24.638;2022-11-13T05:18:29;99013.53;;;10.73;100.00
10464;BME280;5279;42.048;24.638;2022-11-13T05:20:56;99005.81;;;10.70;100.00
10464;BME280;5279;42.048;24.638;2022-11-13T05:23:24;99015.88;;;10.78;100.00
10464;BME280;5279;42.048;24.638;2022-11-13T05:25:51;99015.38;;;10.73;100.00
10464;BME280;5279;42.048;24.638;2022-11-13T05:28:18;99016.75;;;10.66;100.00
10464;BME280;5279;42.048;24.638;2022-11-13T05:30:45;99015.66;;;10.32;100.00
10464;BME280;5279;42.048;24.638;2022-11-13T05:33:12;99009.94;;;10.38;100.00
10464;BME280;5279;42.048;24.638;2022-11-13T05:35:40;99017.25;;;10.34;100.00
10464;BME280;5279;42.048;24.638;2022-11-13T05:38:07;99003.91;;;10.36;100.00
10464;BME280;5279;42.048;24.638;2022-11-13T05:40:34;99018.81;;;10.37;100.00
10464;BME280;5279;42.048;24.638;2022-11-13T05:43:01;99016.28;;;10.48;100.00
10464;BME280;5279;42.048;24.638;2022-11-13T05:45:28;99020.00;;;10.46;100.00
10464;BME280;5279;42.048;24.638;2022-11-13T05:47:56;99009.06;;;10.50;100.00
10464;BME280;5279;42.048;24.638;2022-11-13T05:50:23;99018.13;;;10.71;100.00
10464;BME280;5279;42.048;24.638;2022-11-13T05:52:51;99024.47;;;10.81;100.00
10464;BME280;5279;42.048;24.638;2022-11-13T05:55:18;99025.13;;;10.72;100.00
10464;BME280;5279;42.048;24.638;2022-11-13T05:57:45;99028.91;;;10.81;100.00
10464;BME280;5279;42.048;24.638;2022-11-13T06:00:13;99021.75;;;10.94;100.00
10464;BME280;5279;42.048;24.638;2022-11-13T06:02:40;99041.22;;;11.06;100.00
10464;BME280;5279;42.048;24.638;2022-11-13T06:05:07;99021.19;;;11.02;100.00
10464;BME280;5279;42.048;24.638;2022-11-13T06:07:34;99033.81;;;11.22;100.00
10464;BME280;5279;42.048;24.638;2022-11-13T06:10:02;99037.00;;;11.27;100.00
10464;BME280;5279;42.048;24.638;2022-11-13T06:12:29;99035.56;;;11.34;100.00
10464;BME280;5279;42.048;24.638;2022-11-13T06:14:56;99041.63;;;11.36;100.00
10464;BME280;5279;42.048;24.638;2022-11-13T06:17:23;99042.84;;;11.43;100.00
10464;BME280;5279;42.048;24.638;2022-11-13T06:19:50;99042.59;;;11.46;100.00
10464;BME280;5279;42.048;24.638;2022-11-13T06:22:17;99046.41;;;11.55;100.00
10464;BME280;5279;42.048;24.638;2022-11-13T06:24:44;99041.44;;;11.61;100.00
10464;BME280;5279;42.048;24.638;2022-11-13T06:27:13;99048.78;;;11.70;100.00
10464;BME280;5279;42.048;24.638;2022-11-13T06:30:05;99044.44;;;11.80;100.00
10464;BME280;5279;42.048;24.638;2022-11-13T06:32:32;99036.94;;;11.74;100.00
10464;BME280;5279;42.048;24.638;2022-11-13T06:34:59;99046.28;;;11.91;100.00
10464;BME280;5279;42.048;24.638;2022-11-13T06:37:26;99044.97;;;11.96;100.00
10464;BME280;5279;42.048;24.638;2022-11-13T06:39:52;99048.16;;;12.13;100.00
10464;BME280;5279;42.048;24.638;2022-11-13T06:42:21;99032.91;;;12.26;100.00
10464;BME280;5279;42.048;24.638;2022-11-13T06:44:47;99024.97;;;12.37;100.00
10464;BME280;5279;42.048;24.638;2022-11-13T06:47:14;99023.75;;;12.52;100.00
10464;BME280;5279;42.048;24.638;2022-11-13T06:49:41;99034.94;;;12.78;100.00
10464;BME280;5279;42.048;24.638;2022-11-13T06:52:08;99028.88;;;12.87;100.00
10464;BME280;5279;42.048;24.638;2022-11-13T06:54:35;99034.66;;;13.03;100.00
10464;BME280;5279;42.048;24.638;2022-11-13T06:57:02;99037.00;;;12.85;100.00
10464;BME280;5279;42.048;24.638;2022-11-13T06:59:30;99026.13;;;12.88;100.00
10464;BME280;5279;42.048;24.638;2022-11-13T07:01:57;99030.56;;;13.10;100.00
10464;BME280;5279;42.048;24.638;2022-11-13T07:04:24;99025.50;;;13.39;100.00
10464;BME280;5279;42.048;24.638;2022-11-13T07:06:51;99024.75;;;13.68;100.00
10464;BME280;5279;42.048;24.638;2022-11-13T07:09:18;99017.38;;;14.02;100.00
10464;BME280;5279;42.048;24.638;2022-11-13T07:11:44;99021.59;;;14.26;100.00
10464;BME280;5279;42.048;24.638;2022-11-13T07:14:11;99017.41;;;14.63;100.00
10464;BME280;5279;42.048;24.638;2022-11-13T07:16:42;99021.44;;;14.97;100.00
10464;BME280;5279;42.048;24.638;2022-11-13T07:19:09;99009.78;;;15.08;100.00
10464;BME280;5279;42.048;24.638;2022-11-13T07:21:36;99010.06;;;15.14;100.00
10464;BME280;5279;42.048;24.638;2022-11-13T07:24:04;99014.59;;;15.23;100.00
10464;BME280;5279;42.048;24.638;2022-11-13T07:26:31;99016.97;;;15.26;97.70
10464;BME280;5279;42.048;24.638;2022-11-13T07:28:58;99006.84;;;15.20;100.00
10464;BME280;5279;42.048;24.638;2022-11-13T07:31:24;99010.94;;;15.34;95.53
10464;BME280;5279;42.048;24.638;2022-11-13T07:33:53;98999.47;;;15.53;99.66
10464;BME280;5279;42.048;24.638;2022-11-13T07:36:20;99000.00;;;15.66;90.85
10464;BME280;5279;42.048;24.638;2022-11-13T07:38:46;98996.34;;;15.57;100.00
10464;BME280;5279;42.048;24.638;2022-11-13T07:41:13;99008.09;;;15.93;100.00
10464;BME280;5279;42.048;24.638;2022-11-13T07:43:40;99004.44;;;15.94;100.00
10464;BME280;5279;42.048;24.638;2022-11-13T07:46:07;98994.06;;;15.72;100.00
10464;BME280;5279;42.048;24.638;2022-11-13T07:48:34;99003.91;;;15.81;100.00
10464;BME280;5279;42.048;24.638;2022-11-13T07:51:02;98997.91;;;15.50;100.00
10464;BME280;5279;42.048;24.638;2022-11-13T07:53:29;99007.59;;;15.70;100.00
10464;BME280;5279;42.048;24.638;2022-11-13T07:55:59;99009.81;;;15.94;100.00
10464;BME280;5279;42.048;24.638;2022-11-13T07:58:26;99007.56;;;15.90;100.00
10464;BME280;5279;42.048;24.638;2022-11-13T08:00:53;99013.31;;;15.95;99.58
10464;BME280;5279;42.048;24.638;2022-11-13T08:03:20;99002.53;;;15.77;98.80
10464;BME280;5279;42.048;24.638;2022-11-13T08:05:47;99019.41;;;15.68;98.77
10464;BME280;5279;42.048;24.638;2022-11-13T08:08:15;99004.75;;;15.33;100.00
10464;BME280;5279;42.048;24.638;2022-11-13T08:10:42;99027.97;;;15.43;100.00
10464;BME280;5279;42.048;24.638;2022-11-13T08:13:09;99013.47;;;15.26;100.00
10464;BME280;5279;42.048;24.638;2022-11-13T08:15:37;99025.97;;;15.35;100.00
10464;BME280;5279;42.048;24.638;2022-11-13T08:18:04;99019.66;;;15.26;100.00
10464;BME280;5279;42.048;24.638;2022-11-13T08:20:31;99013.47;;;15.36;100.00
10464;BME280;5279;42.048;24.638;2022-11-13T08:22:59;99026.97;;;15.34;100.00
10464;BME280;5279;42.048;24.638;2022-11-13T08:25:29;99029.78;;;15.13;100.00
10464;BME280;5279;42.048;24.638;2022-11-13T08:27:56;99019.25;;;15.31;100.00
10464;BME280;5279;42.048;24.638;2022-11-13T08:30:24;99028.94;;;15.42;100.00
10464;BME280;5279;42.048;24.638;2022-11-13T08:32:52;99021.66;;;15.44;100.00
10464;BME280;5279;42.048;24.638;2022-11-13T08:35:19;99026.81;;;15.36;100.00
10464;BME280;5279;42.048;24.638;2022-11-13T08:37:46;99029.75;;;15.23;100.00
10464;BME280;5279;42.048;24.638;2022-11-13T08:40:14;99026.22;;;15.03;100.00
10464;BME280;5279;42.048;24.638;2022-11-13T08:42:42;99013.28;;;14.99;100.00
10464;BME280;5279;42.048;24.638;2022-11-13T08:45:09;99024.13;;;14.97;100.00
10464;BME280;5279;42.048;24.638;2022-11-13T08:47:36;99024.31;;;14.75;100.00
10464;BME280;5279;42.048;24.638;2022-11-13T08:50:04;99028.53;;;14.77;100.00
10464;BME280;5279;42.048;24.638;2022-11-13T08:52:32;99010.84;;;14.67;100.00
10464;BME280;5279;42.048;24.638;2022-11-13T08:54:58;99016.72;;;14.61;100.00
10464;BME280;5279;42.048;24.638;2022-11-13T08:57:25;99018.38;;;14.52;100.00
10464;BME280;5279;42.048;24.638;2022-11-13T08:59:54;99024.19;;;14.37;100.00
10464;BME280;5279;42.048;24.638;2022-11-13T09:02:21;99025.06;;;14.37;100.00
10464;BME280;5279;42.048;24.638;2022-11-13T09:04:47;99026.72;;;14.38;100.00
10464;BME280;5279;42.048;24.638;2022-11-13T09:07:14;99025.09;;;14.47;100.00
10464;BME280;5279;42.048;24.638;2022-11-13T09:09:41;99013.56;;;14.46;100.00
10464;BME280;5279;42.048;24.638;2022-11-13T09:12:08;99003.50;;;14.50;100.00
10464;BME280;5279;42.048;24.638;2022-11-13T09:14:36;99008.25;;;14.46;100.00
10464;BME280;5279;42.048;24.638;2022-11-13T09:17:04;99006.59;;;14.55;100.00
10464;BME280;5279;42.048;24.638;2022-11-13T09:19:31;99012.63;;;14.57;100.00
10464;BME280;5279;42.048;24.638;2022-11-13T09:21:58;99018.50;;;14.51;100.00
10464;BME280;5279;42.048;24.638;2022-11-13T09:24:25;99001.78;;;14.49;100.00
10464;BME280;5279;42.048;24.638;2022-11-13T09:26:52;99011.66;;;14.58;100.00
10464;BME280;5279;42.048;24.638;2022-11-13T09:29:19;98999.00;;;14.60;100.00
10464;BME280;5279;42.048;24.638;2022-11-13T09:31:48;98985.78;;;14.49;100.00
10464;BME280;5279;42.048;24.638;2022-11-13T09:34:16;98999.28;;;14.57;100.00
10464;BME280;5279;42.048;24.638;2022-11-13T09:36:43;98995.38;;;14.61;100.00
10464;BME280;5279;42.048;24.638;2022-11-13T09:39:10;98972.34;;;14.69;100.00
10464;BME280;5279;42.048;24.638;2022-11-13T09:41:38;98977.75;;;14.89;100.00
10464;BME280;5279;42.048;24.638;2022-11-13T09:44:12;98984.78;;;14.99;100.00
10464;BME280;5279;42.048;24.638;2022-11-13T09:46:43;98971.84;;;14.95;97.43
10464;BME280;5279;42.048;24.638;2022-11-13T09:49:14;98978.03;;;14.86;96.97
10464;BME280;5279;42.048;24.638;2022-11-13T09:51:48;98969.16;;;14.85;96.20
10464;BME280;5279;42.048;24.638;2022-11-13T09:54:16;98969.75;;;14.89;100.00
10464;BME280;5279;42.048;24.638;2022-11-13T09:56:50;98959.34;;;14.95;100.00
10464;BME280;5279;42.048;24.638;2022-11-13T09:59:25;98961.28;;;14.93;100.00
10464;BME280;5279;42.048;24.638;2022-11-13T10:02:00;98974.94;;;15.09;97.53
10464;BME280;5279;42.048;24.638;2022-11-13T10:04:42;98974.09;;;15.09;94.62
10464;BME280;5279;42.048;24.638;2022-11-13T10:07:24;98965.38;;;15.36;94.59
10464;BME280;5279;42.048;24.638;2022-11-13T10:10:01;98955.56;;;15.46;99.28
10464;BME280;5279;42.048;24.638;2022-11-13T10:12:31;98965.38;;;15.36;88.90
10464;BME280;5279;42.048;24.638;2022-11-13T10:15:01;98957.22;;;15.66;89.22
10464;BME280;5279;42.048;24.638;2022-11-13T10:17:33;98958.88;;;16.87;77.76
10464;BME280;5279;42.048;24.638;2022-11-13T10:20:04;98960.34;;;16.99;74.13
10464;BME280;5279;42.048;24.638;2022-11-13T10:22:38;98957.81;;;16.98;75.31
10464;BME280;5279;42.048;24.638;2022-11-13T10:25:11;98941.72;;;17.33;73.53
10464;BME280;5279;42.048;24.638;2022-11-13T10:27:38;98951.53;;;17.42;73.65
10464;BME280;5279;42.048;24.638;2022-11-13T10:30:12;98942.75;;;17.93;69.91
10464;BME280;5279;42.048;24.638;2022-11-13T10:32:39;98937.50;;;18.17;72.23
10464;BME280;5279;42.048;24.638;2022-11-13T10:35:22;98935.41;;;18.37;66.25
10464;BME280;5279;42.048;24.638;2022-11-13T10:37:59;98933.47;;;19.13;64.84
10464;BME280;5279;42.048;24.638;2022-11-13T10:40:29;98936.22;;;19.78;62.03
10464;BME280;5279;42.048;24.638;2022-11-13T10:43:05;98925.66;;;21.01;59.54
10464;BME280;5279;42.048;24.638;2022-11-13T10:45:32;98926.38;;;22.44;53.10
10464;BME280;5279;42.048;24.638;2022-11-13T10:47:59;98910.06;;;23.87;48.19
10464;BME280;5279;42.048;24.638;2022-11-13T10:50:28;98894.94;;;25.68;43.99
10464;BME280;5279;42.048;24.638;2022-11-13T10:52:57;98906.00;;;26.83;40.71
10464;BME280;5279;42.048;24.638;2022-11-13T10:55:28;98900.31;;;27.23;39.06
10464;BME280;5279;42.048;24.638;2022-11-13T10:58:09;98899.19;;;28.54;37.19
10464;BME280;5279;42.048;24.638;2022-11-13T11:00:37;98885.38;;;29.45;33.86
10464;BME280;5279;42.048;24.638;2022-11-13T11:03:07;98885.69;;;28.23;35.26
10464;BME280;5279;42.048;24.638;2022-11-13T11:05:34;98873.94;;;28.22;35.10
10464;BME280;5279;42.048;24.638;2022-11-13T11:08:07;98879.31;;;28.10;35.02
10464;BME280;5279;42.048;24.638;2022-11-13T11:10:35;98881.63;;;27.33;36.07
10464;BME280;5279;42.048;24.638;2022-11-13T11:13:25;98880.22;;;26.35;37.70
10464;BME280;5279;42.048;24.638;2022-11-13T11:15:54;98873.56;;;25.06;39.98
10464;BME280;5279;42.048;24.638;2022-11-13T11:18:25;98865.84;;;23.80;41.86
10464;BME280;5279;42.048;24.638;2022-11-13T11:20:57;98869.28;;;22.47;45.25
10464;BME280;5279;42.048;24.638;2022-11-13T11:23:30;98861.78;;;21.99;46.12
10464;BME280;5279;42.048;24.638;2022-11-13T11:26:02;98846.44;;;21.47;49.15
10464;BME280;5279;42.048;24.638;2022-11-13T11:28:35;98861.44;;;20.82;50.88
10464;BME280;5279;42.048;24.638;2022-11-13T11:31:09;98853.31;;;20.36;52.78
10464;BME280;5279;42.048;24.638;2022-11-13T11:33:46;98856.88;;;20.59;53.55
10464;BME280;5279;42.048;24.638;2022-11-13T11:36:21;98853.50;;;21.34;52.00
10464;BME280;5279;42.048;24.638;2022-11-13T11:38:56;98844.91;;;21.82;50.42
10464;BME280;5279;42.048;24.638;2022-11-13T11:41:30;98843.94;;;21.08;52.16
10464;BME280;5279;42.048;24.638;2022-11-13T11:44:04;98850.50;;;20.52;52.29
10464;BME280;5279;42.048;24.638;2022-11-13T11:46:35;98844.63;;;20.18;54.63
10464;BME280;5279;42.048;24.638;2022-11-13T11:49:03;98842.72;;;19.80;56.31
10464;BME280;5279;42.048;24.638;2022-11-13T11:51:33;98839.09;;;19.08;58.92
10464;BME280;5279;42.048;24.638;2022-11-13T11:54:12;98852.19;;;19.11;60.48
10464;BME280;5279;42.048;24.638;2022-11-13T11:56:44;98840.94;;;19.40;58.46
10464;BME280;5279;42.048;24.638;2022-11-13T11:59:25;98838.56;;;19.37;60.05
10464;BME280;5279;42.048;24.638;2022-11-13T12:05:16;98825.28;;;19.27;57.85
10464;BME280;5279;42.048;24.638;2022-11-13T12:08:01;98828.34;;;19.32;56.72
10464;BME280;5279;42.048;24.638;2022-11-13T12:10:39;98823.47;;;19.36;57.63
10464;BME280;5279;42.048;24.638;2022-11-13T12:13:17;98836.56;;;18.82;58.76
10464;BME280;5279;42.048;24.638;2022-11-13T12:15:53;98817.25;;;19.19;58.21
10464;BME280;5279;42.048;24.638;2022-11-13T12:18:32;98810.22;;;19.10;58.70
10464;BME280;5279;42.048;24.638;2022-11-13T12:21:10;98816.94;;;18.90;59.88
10464;BME280;5279;42.048;24.638;2022-11-13T12:23:55;98818.56;;;18.59;61.47
10464;BME280;5279;42.048;24.638;2022-11-13T12:26:29;98822.47;;;18.14;62.77
10464;BME280;5279;42.048;24.638;2022-11-13T12:29:03;98823.38;;;17.97;64.61
10464;BME280;5279;42.048;24.638;2022-11-13T12:31:42;98802.53;;;17.75;65.91
10464;BME280;5279;42.048;24.638;2022-11-13T12:34:18;98804.88;;;17.52;69.02
10464;BME280;5279;42.048;24.638;2022-11-13T12:36:48;98810.31;;;17.34;68.87
10464;BME280;5279;42.048;24.638;2022-11-13T12:39:38;98814.59;;;17.02;70.77
10464;BME280;5279;42.048;24.638;2022-11-13T12:42:16;98800.06;;;16.86;72.66
10464;BME280;5279;42.048;24.638;2022-11-13T12:44:51;98801.09;;;16.68;72.39
10464;BME280;5279;42.048;24.638;2022-11-13T12:47:20;98795.41;;;16.53;73.10
10464;BME280;5279;42.048;24.638;2022-11-13T12:52:42;98805.81;;;16.11;77.46
10464;BME280;5279;42.048;24.638;2022-11-13T12:55:24;98790.53;;;16.04;79.03
10464;BME280;5279;42.048;24.638;2022-11-13T12:57:52;98806.03;;;16.00;79.55
10464;BME280;5279;42.048;24.638;2022-11-13T13:00:24;98803.56;;;15.89;82.35
10464;BME280;5279;42.048;24.638;2022-11-13T13:02:59;98790.06;;;15.81;79.99
10464;BME280;5279;42.048;24.638;2022-11-13T13:05:50;98795.41;;;15.81;82.05
10464;BME280;5279;42.048;24.638;2022-11-13T13:08:37;98800.00;;;15.71;82.36